Aviation Digital Data Service (ADDS)

Output produced by METARs form (0939 UTC 30 October 2020)
found at http://aviationweather.gov/metar/data/
 
METAR text: KTAD 300854Z AUTO 25012KT 10SM CLR 03/M01 A3024 RMK AO2 SLP204 T00331011 58002
Conditions at: KTAD (TRINIDAD/ANIMAS , CO, US) observed 0854 UTC 30 October 2020
Temperature: 3.3°C (38°F)
Dewpoint: -1.1°C (30°F) [RH = 73%]
Pressure (altimeter): 30.24 inches Hg (1024.1 mb)
[Sea-level pressure: 1020.4 mb]
Winds: from the WSW (250 degrees) at 14 MPH (12 knots; 6.2 m/s)
Visibility: 10 or more miles (16+ km)
Ceiling: at least 12,000 feet AGL
Clouds: sky clear below 12,000 feet AGL
Weather: automated observation with no human augmentation;
there may or may not be significant weather present at this time